Details From VOML - MANGALORE
To VOBG - Bangalore
Flight Number -
Tags generated
Created
Modified
Stats Distance 164 nm / 304 km
Max Altitude 10,000 ft / 3,048 m
Waypoints 4
Social Downloads 0
Likes 0
Share VATSIM

Download

Looking for another format? Having issues loading an existing format? Contact us
Advertisement - Login to hide

Notes

Basic altitude profile: - Ascent Rate: 2500ft/min - Ascent Speed: 250kts - Cruise Altitude: 35000ft - Cruise Speed: 420kts - Descent Rate: 1500ft/min - Descent Speed: 250kts Options: - Use NATs: yes - Use PACOTS: yes - Use low airways: yes - Use high airways: yes

Route

VOML MML W81 BBG VOBG

ID Type Via Altitude Latitude Longitude Leg Dist Tot Dist Heading (true) Name
O VOML APT - 0 ft / 0 m 12.95794˚ 74.88870˚ - 0 nm - MANGALORE
MML VOR - 600 ft / 183 m 12.96128˚ 74.92164˚ 1 nm 1 nm 84° / 84° MANGALORE VOR-DME
BBG VOR W81 (AWY-LO) 10,000 ft / 3,048 m 12.94975˚ 77.68100˚ 161 nm 163 nm 90° / 91° BANGALORE VOR-DME
O VOBG APT - 0 ft / 0 m 12.95016˚ 77.67065˚ 0 nm 164 nm 272° / 272° Bangalore

Altitude Profile

Advertisement - Login to hide

Weather


0- 5 10 15 20 25 30 35+ Temperature / ° C

Clouds and Precipitation
Forecast for 2017-12-18 06:00 UTC. Updated 30 minutes ago

Ground ~20,000 ft ~40,000 ft Winds

VOML

Details ICAO VOML (IXE)
Name MANGALORE
Region India
Timezone Asia/Kolkata (UTC+5.5)
Stats Elevation 337 ft / 103 m (AMSL)
Location 12.957941° 74.888702°
Runways 2
Magnetic Variation 1.187° W

METAR

VOML 180530Z 10009KT 6000 NSC 29/14 Q1016 NOSIG

Decode

TAF

Not found

Departure Runways

ID Width Length Bearing (true) Bearing (mag) Surface Threshold Offset Overrun Length
06 151 ft / 46 m 8,054 ft / 2,455 m 58.13° 59.32° Concrete 394 ft / 120 m 0 ft / 0 m
09 151 ft / 46 m 5,321 ft / 1,622 m 89.10° 90.29° Asphalt 0 ft / 0 m 0 ft / 0 m
24 151 ft / 46 m 8,054 ft / 2,455 m 238.13° 239.32° Concrete 0 ft / 0 m 0 ft / 0 m
27 151 ft / 46 m 5,321 ft / 1,622 m 269.11° 270.30° Asphalt 0 ft / 0 m 0 ft / 0 m

VOBG

Details ICAO VOBG
Name Bangalore
Region India
Timezone Asia/Kolkata (UTC+5.5)
Stats Elevation 2,912 ft / 888 m (AMSL)
Location 12.950157° 77.670647°
Runways 1
Magnetic Variation 1.216° W

METAR

VOBG 180530Z 08009KT 5000 HZ SCT012 23/12 Q1022

Decode

TAF

Not found

Destination Runways

ID Width Length Bearing (true) Bearing (mag) Surface Threshold Offset Overrun Length
09 200 ft / 61 m 10,786 ft / 3,288 m 84.80° 86.02° Asphalt 0 ft / 0 m 950 ft / 290 m
27 200 ft / 61 m 10,786 ft / 3,288 m 264.81° 266.03° Asphalt 0 ft / 0 m 980 ft / 299 m

Approach Navaids

Runway Type Ident Frequency Range Bearing (true) Bearing (mag) Slope Elevation
27 Localiser IBLR 110.50 MHz 18 nm / 33 km 262.49° 263.70° - 2,912 ft / 888 m (AMSL)
27 Glidescope IBLR 110.50 MHz 10 nm / 19 km 264.81° 266.02° 3.00° 2,943 ft / 897 m (AMSL)
27 DME IBLR 110.50 MHz 18 nm / 33 km - - - 2,912 ft / 888 m (AMSL)

Popular Alternatives